Rancagua, Chile
Current Conditions -  °F | °C
As of 10:00 AM on Wednesday 22 Oct 2014 (Local Time) from SCEL Reporting Station
Clear Clear  
Wind Chill: 70°   Ceiling: Unl
Heat Index: 70°   Visibility: 6mi
Dew Point: 52°   Wind: 2mph
Humidity: 53%   Direction: NA
Pressure: 29.97"   Gusts: NA
Location:  34.17°S, 70.74°W
Report Text: SCEL 221400Z VRB02KT CAVOK 21/11 Q1015 NOSIG
Loading
Personal Weather Stations






























Interactive Weather Map
Tropical Storm Tracking
New forecast layout! Learn more

10-Day Weather Forecast

Advertisements
Track Severe Weather on mobile